Time;durP1;ratioP1;P1;durP2;ratioP2;P2;SDS_P1;SDS_P2;PMS_P1;PMS_P2;Temp;Humidity;BMP_temperature;BMP_pressure;BME280_temperature;BME280_humidity;BME280_pressure;Samples;Min_cycle;Max_cycle;Signal;HPM_P1;HPM_P2
2021/06/10 00:00:29;;;;;;;7.30;2.10;;;19.30;69.90;;;;;;5029570;28;20041;-68
2021/06/10 00:02:55;;;;;;;4.60;2.78;;;19.30;70.10;;;;;;5029927;28;20028;-68
2021/06/10 00:05:21;;;;;;;6.05;2.10;;;19.20;70.20;;;;;;5029770;28;20045;-68
2021/06/10 00:07:48;;;;;;;3.90;2.10;;;19.10;70.40;;;;;;5029685;28;20033;-68
2021/06/10 00:10:16;;;;;;;7.82;2.65;;;19.10;70.90;;;;;;5028155;28;20104;-68
2021/06/10 00:12:43;;;;;;;2.92;1.85;;;19.00;71.10;;;;;;5030001;28;20036;-68
2021/06/10 00:15:14;;;;;;;4.60;2.50;;;19.00;71.30;;;;;;5029732;28;20034;-68
2021/06/10 00:17:39;;;;;;;4.05;2.70;;;19.00;71.50;;;;;;5029654;28;20033;-67
2021/06/10 00:20:08;;;;;;;7.63;2.97;;;18.90;71.70;;;;;;5029733;28;20109;-68
2021/06/10 00:22:34;;;;;;;8.18;2.47;;;18.90;71.90;;;;;;5029119;28;20037;-68
2021/06/10 00:25:00;;;;;;;8.60;2.55;;;18.90;72.30;;;;;;5028870;28;20037;-69
2021/06/10 00:27:26;;;;;;;5.15;2.13;;;18.80;71.90;;;;;;5029512;28;20044;-69
2021/06/10 00:29:52;;;;;;;3.65;1.90;;;18.70;71.40;;;;;;5029475;28;20104;-69
2021/06/10 00:32:18;;;;;;;2.88;2.05;;;18.70;71.20;;;;;;5029512;28;20514;-69
2021/06/10 00:34:43;;;;;;;5.70;2.50;;;18.60;71.40;;;;;;5029011;28;20061;-68
2021/06/10 00:37:10;;;;;;;5.03;2.35;;;18.50;71.70;;;;;;5029439;28;20076;-68
2021/06/10 00:39:36;;;;;;;3.08;2.17;;;18.50;71.80;;;;;;5029581;28;20037;-68
2021/06/10 00:42:03;;;;;;;10.52;2.75;;;18.40;71.80;;;;;;5029270;28;20080;-68
2021/06/10 00:44:28;;;;;;;6.72;2.40;;;18.40;72.40;;;;;;5029421;28;20033;-69
2021/06/10 00:46:54;;;;;;;4.55;2.30;;;18.30;72.90;;;;;;5029328;28;20026;-68
2021/06/10 00:49:20;;;;;;;6.25;2.28;;;18.30;73.30;;;;;;5029249;28;20025;-68
2021/06/10 00:51:45;;;;;;;7.80;2.88;;;18.10;73.80;;;;;;5028200;28;20057;-68
2021/06/10 00:54:11;;;;;;;5.30;2.42;;;18.10;73.60;;;;;;5028805;28;20490;-68
2021/06/10 00:56:37;;;;;;;6.57;2.22;;;18.10;73.00;;;;;;5028586;28;20032;-67
2021/06/10 00:59:03;;;;;;;4.20;2.35;;;18.10;73.20;;;;;;5029008;28;20452;-68
2021/06/10 01:01:30;;;;;;;8.10;2.75;;;18.10;73.20;;;;;;5028111;28;20112;-68
2021/06/10 01:03:56;;;;;;;4.90;2.60;;;18.10;73.10;;;;;;5028855;28;20029;-69
2021/06/10 01:06:44;;;;;;;12.98;2.42;;;18.10;73.00;;;;;;5028531;28;20512;-68
2021/06/10 01:09:40;;;;;;;3.35;2.55;;;18.10;72.80;;;;;;5027506;28;20042;-68
2021/06/10 01:12:29;;;;;;;3.28;2.55;;;18.20;73.80;;;;;;5028726;28;20033;-68
2021/06/10 01:15:00;;;;;;;6.43;2.90;;;18.20;73.30;;;;;;5027834;28;20038;-68
2021/06/10 01:17:28;;;;;;;10.10;2.58;;;18.30;73.10;;;;;;5022068;28;20498;-69
2021/06/10 01:20:10;;;;;;;5.43;2.42;;;18.30;72.80;;;;;;5028589;28;20402;-68
2021/06/10 01:22:43;;;;;;;10.20;2.85;;;18.40;72.70;;;;;;5028248;28;20056;-68
2021/06/10 01:25:27;;;;;;;4.07;3.03;;;18.50;72.70;;;;;;5028362;28;20072;-68
2021/06/10 01:27:57;;;;;;;5.57;2.53;;;18.50;72.60;;;;;;5029215;28;20037;-68
2021/06/10 01:30:35;;;;;;;10.27;2.88;;;18.50;72.70;;;;;;5028759;28;20025;-69
2021/06/10 01:33:08;;;;;;;9.63;2.67;;;18.50;72.70;;;;;;5028192;28;20045;-69
2021/06/10 01:35:38;;;;;;;4.75;2.50;;;18.40;72.50;;;;;;5027757;28;20084;-69
2021/06/10 01:38:05;;;;;;;11.48;3.03;;;18.40;72.50;;;;;;5026677;28;20037;-68
2021/06/10 01:40:31;;;;;;;3.30;2.65;;;18.40;73.00;;;;;;5027833;28;20037;-68
2021/06/10 01:42:59;;;;;;;8.27;2.75;;;18.30;72.90;;;;;;5028190;28;20053;-68
2021/06/10 01:45:26;;;;;;;4.68;2.83;;;18.20;73.10;;;;;;5026316;28;20466;-69
2021/06/10 01:47:53;;;;;;;8.30;2.45;;;18.20;73.10;;;;;;5027840;28;20025;-69
2021/06/10 01:50:22;;;;;;;7.45;2.42;;;18.20;73.20;;;;;;5027999;28;20104;-68
2021/06/10 01:52:49;;;;;;;5.15;2.78;;;18.20;73.50;;;;;;5027672;28;20243;-68
2021/06/10 01:55:20;;;;;;;6.68;2.28;;;18.20;73.40;;;;;;5027431;28;20033;-68
2021/06/10 01:57:47;;;;;;;7.20;3.00;;;18.20;73.40;;;;;;5027910;28;20029;-69
2021/06/10 02:00:14;;;;;;;5.53;2.38;;;18.20;73.50;;;;;;5028035;28;20525;-69
2021/06/10 02:02:40;;;;;;;4.07;2.40;;;18.20;73.40;;;;;;5027858;28;20552;-68
2021/06/10 02:05:08;;;;;;;10.07;3.00;;;18.30;73.50;;;;;;5025932;28;20033;-69
2021/06/10 02:07:39;;;;;;;4.68;2.80;;;18.30;73.60;;;;;;5026982;28;20116;-68
2021/06/10 02:10:06;;;;;;;6.85;2.35;;;18.30;73.70;;;;;;5027782;28;20033;-67
2021/06/10 02:12:32;;;;;;;5.93;2.40;;;18.30;73.50;;;;;;5027516;28;20120;-68
2021/06/10 02:15:02;;;;;;;7.50;2.88;;;18.40;73.40;;;;;;5026883;28;20116;-68
2021/06/10 02:17:28;;;;;;;6.90;2.70;;;18.40;73.40;;;;;;5027458;28;20029;-68
2021/06/10 02:19:53;;;;;;;5.75;2.60;;;18.40;73.30;;;;;;5027437;28;20036;-68
2021/06/10 02:22:19;;;;;;;4.82;2.80;;;18.40;73.30;;;;;;5026211;28;20490;-70
2021/06/10 02:24:48;;;;;;;4.90;3.05;;;18.50;73.20;;;;;;5027393;28;20103;-69
2021/06/10 02:27:14;;;;;;;7.30;2.50;;;18.50;73.30;;;;;;5027102;28;20116;-69
2021/06/10 02:29:40;;;;;;;6.00;3.10;;;18.50;73.50;;;;;;5027432;28;20101;-68
2021/06/10 02:32:07;;;;;;;4.65;3.00;;;18.40;73.70;;;;;;5027271;28;20080;-68
2021/06/10 02:34:32;;;;;;;5.43;2.88;;;18.50;73.40;;;;;;5026798;28;20042;-69
2021/06/10 02:36:59;;;;;;;6.05;2.58;;;18.50;72.40;;;;;;5026863;28;20048;-68
2021/06/10 02:39:25;;;;;;;7.53;3.05;;;18.60;71.70;;;;;;5025938;28;20481;-68
2021/06/10 02:41:53;;;;;;;4.72;3.00;;;18.70;70.80;;;;;;5026922;28;20452;-68
2021/06/10 02:44:19;;;;;;;5.70;2.83;;;18.90;70.50;;;;;;5026949;28;20022;-68
2021/06/10 02:46:52;;;;;;;6.65;2.78;;;19.10;70.10;;;;;;5025614;28;20041;-68
2021/06/10 02:49:19;;;;;;;7.93;2.97;;;19.20;70.30;;;;;;5026434;28;20021;-68
2021/06/10 02:51:45;;;;;;;4.78;2.78;;;19.30;69.50;;;;;;5026648;28;20041;-67
2021/06/10 02:54:16;;;;;;;7.97;3.03;;;19.30;69.10;;;;;;5026864;28;20136;-67
2021/06/10 02:56:42;;;;;;;8.63;3.03;;;19.40;68.60;;;;;;5026494;28;20030;-68
2021/06/10 02:59:09;;;;;;;10.73;2.60;;;19.50;68.10;;;;;;5026805;28;20501;-68
2021/06/10 03:01:40;;;;;;;5.57;2.72;;;19.60;69.20;;;;;;5026216;28;20025;-69
2021/06/10 03:04:09;;;;;;;6.70;2.70;;;19.60;69.50;;;;;;5026883;28;20036;-68
2021/06/10 03:06:36;;;;;;;7.47;2.65;;;19.60;69.80;;;;;;5025828;28;20087;-68
2021/06/10 03:09:03;;;;;;;5.05;2.83;;;19.50;69.80;;;;;;5026635;28;20029;-69
2021/06/10 03:11:29;;;;;;;3.88;2.55;;;19.60;69.80;;;;;;5026530;28;20380;-68
2021/06/10 03:13:57;;;;;;;5.15;2.53;;;19.60;69.50;;;;;;5024555;28;20033;-68
2021/06/10 03:16:23;;;;;;;12.15;3.17;;;19.50;69.70;;;;;;5026408;28;20021;-69
2021/06/10 03:18:50;;;;;;;4.45;2.70;;;19.50;69.70;;;;;;5025479;28;20037;-68
2021/06/10 03:21:17;;;;;;;3.78;2.78;;;19.60;69.80;;;;;;5026011;28;20029;-68
2021/06/10 03:23:43;;;;;;;5.78;2.20;;;19.60;70.00;;;;;;5026109;28;20352;-69
2021/06/10 03:26:09;;;;;;;7.50;2.88;;;19.60;70.00;;;;;;5026375;28;20083;-68
2021/06/10 03:28:36;;;;;;;8.98;2.45;;;19.60;69.90;;;;;;5025646;28;20035;-69
2021/06/10 03:31:03;;;;;;;7.45;2.95;;;19.60;69.70;;;;;;5023861;28;20030;-68
2021/06/10 03:33:29;;;;;;;8.20;2.72;;;19.70;69.90;;;;;;5024394;28;20033;-68
2021/06/10 03:35:55;;;;;;;7.93;2.72;;;19.70;70.10;;;;;;5024443;28;20431;-67
2021/06/10 03:38:23;;;;;;;8.35;3.25;;;19.80;70.60;;;;;;5025196;28;20121;-70
2021/06/10 03:40:50;;;;;;;4.30;2.85;;;19.80;70.10;;;;;;5025467;28;20029;-69
2021/06/10 03:43:17;;;;;;;4.28;2.63;;;19.70;70.30;;;;;;5024324;28;20036;-68
2021/06/10 03:45:42;;;;;;;5.65;2.25;;;19.80;70.80;;;;;;5025778;28;20828;-70
2021/06/10 03:48:13;;;;;;;4.90;2.72;;;19.80;70.80;;;;;;5026293;28;20026;-68
2021/06/10 03:50:39;;;;;;;5.60;2.42;;;19.80;70.60;;;;;;5024017;28;20033;-68
2021/06/10 03:53:06;;;;;;;5.05;2.33;;;19.70;70.40;;;;;;5024913;28;20032;-68
2021/06/10 03:55:32;;;;;;;7.95;3.58;;;19.70;70.20;;;;;;5026079;28;20041;-69
2021/06/10 03:57:57;;;;;;;5.05;3.08;;;19.80;70.70;;;;;;5025665;28;20026;-69
2021/06/10 04:00:24;;;;;;;3.25;2.65;;;19.70;70.60;;;;;;5026075;28;20498;-69
2021/06/10 04:02:50;;;;;;;10.52;3.33;;;19.70;70.30;;;;;;5025814;28;20037;-69
2021/06/10 04:05:15;;;;;;;10.73;3.40;;;19.70;70.70;;;;;;5025603;28;20036;-69
2021/06/10 04:07:41;;;;;;;10.27;2.88;;;19.70;71.10;;;;;;5025466;28;20700;-69
2021/06/10 04:10:07;;;;;;;12.05;2.85;;;19.70;71.40;;;;;;5024782;28;20026;-69
2021/06/10 04:12:34;;;;;;;4.65;2.90;;;19.70;71.00;;;;;;5025301;28;20506;-69
2021/06/10 04:14:59;;;;;;;6.68;3.20;;;19.80;70.10;;;;;;5024479;28;20041;-69
2021/06/10 04:17:26;;;;;;;7.15;3.45;;;19.80;70.00;;;;;;5025564;28;20021;-68
2021/06/10 04:19:52;;;;;;;6.60;3.13;;;19.90;70.30;;;;;;5025709;28;20084;-69
2021/06/10 04:22:17;;;;;;;6.90;3.53;;;20.00;68.90;;;;;;5025463;28;20033;-69
2021/06/10 04:24:43;;;;;;;9.27;3.38;;;20.20;69.40;;;;;;5025853;28;20039;-69
2021/06/10 04:27:09;;;;;;;12.77;3.33;;;20.20;68.90;;;;;;5028706;28;20026;-68
2021/06/10 04:29:35;;;;;;;10.30;3.40;;;20.20;69.70;;;;;;5029276;28;20030;-67
2021/06/10 04:32:01;;;;;;;9.55;3.05;;;20.30;69.70;;;;;;5029366;28;20585;-67
2021/06/10 04:34:26;;;;;;;6.55;3.55;;;20.20;69.70;;;;;;5029278;28;20162;-65
2021/06/10 04:36:52;;;;;;;10.57;3.40;;;20.20;69.80;;;;;;5029037;28;20026;-66
2021/06/10 04:39:18;;;;;;;6.47;3.60;;;20.20;70.90;;;;;;5029267;28;20029;-67
2021/06/10 04:41:44;;;;;;;12.25;3.78;;;20.10;70.90;;;;;;5027603;28;20033;-67
2021/06/10 04:44:09;;;;;;;8.52;4.47;;;20.10;70.50;;;;;;5028995;28;20022;-67
2021/06/10 04:46:35;;;;;;;4.47;3.25;;;20.10;70.40;;;;;;5029106;28;20041;-67
2021/06/10 04:49:02;;;;;;;6.28;3.70;;;20.10;70.60;;;;;;5027982;28;20084;-69
2021/06/10 04:51:28;;;;;;;4.60;3.60;;;20.10;71.10;;;;;;5027036;28;20041;-67
2021/06/10 04:53:54;;;;;;;5.97;3.83;;;20.00;71.40;;;;;;5029116;28;20080;-66
2021/06/10 04:56:22;;;;;;;11.10;4.25;;;20.00;71.50;;;;;;5028915;28;20037;-67
2021/06/10 04:58:47;;;;;;;6.18;3.97;;;20.00;71.90;;;;;;5028866;28;20506;-67
2021/06/10 05:01:13;;;;;;;20.02;4.20;;;20.00;73.50;;;;;;5028947;28;20029;-67
2021/06/10 05:03:39;;;;;;;11.38;4.28;;;19.90;73.10;;;;;;5028926;28;20542;-67
2021/06/10 05:06:05;;;;;;;6.30;4.10;;;19.90;71.80;;;;;;5028162;28;20061;-67
2021/06/10 05:08:30;;;;;;;11.57;4.00;;;19.90;72.50;;;;;;5028974;28;20033;-67
2021/06/10 05:10:56;;;;;;;15.18;4.45;;;19.90;72.50;;;;;;5027496;28;20030;-66
2021/06/10 05:13:22;;;;;;;11.13;3.95;;;19.90;72.50;;;;;;5028456;28;20029;-67
2021/06/10 05:15:47;;;;;;;9.35;3.83;;;20.00;72.50;;;;;;5028404;28;20032;-67
2021/06/10 05:18:13;;;;;;;9.10;3.65;;;20.10;71.90;;;;;;5028592;28;20032;-67
2021/06/10 05:20:39;;;;;;;6.55;3.17;;;20.20;71.40;;;;;;5027913;28;20033;-67
2021/06/10 05:23:04;;;;;;;13.25;4.20;;;20.40;71.60;;;;;;5028018;28;20057;-66
2021/06/10 05:25:30;;;;;;;8.32;3.70;;;20.50;73.00;;;;;;5028425;28;20274;-67
2021/06/10 05:27:56;;;;;;;8.80;3.70;;;20.70;72.80;;;;;;5028391;28;20026;-67
2021/06/10 05:30:22;;;;;;;25.98;4.65;;;20.90;71.80;;;;;;5028098;28;20029;-67
2021/06/10 05:32:48;;;;;;;12.07;3.58;;;21.00;70.50;;;;;;5028559;28;20101;-66
2021/06/10 05:35:13;;;;;;;11.30;3.55;;;21.10;70.20;;;;;;5027443;28;20127;-67
2021/06/10 05:37:39;;;;;;;21.30;4.28;;;21.10;69.70;;;;;;5027892;28;20509;-67
2021/06/10 05:40:07;;;;;;;6.88;3.58;;;21.10;69.70;;;;;;5027885;28;20029;-67
2021/06/10 05:42:32;;;;;;;6.03;3.25;;;21.20;69.30;;;;;;5027971;28;20071;-67
2021/06/10 05:44:58;;;;;;;6.63;2.95;;;21.30;69.50;;;;;;5028005;28;20437;-67
2021/06/10 05:47:24;;;;;;;7.07;3.85;;;21.50;69.80;;;;;;5027861;28;20424;-67
2021/06/10 05:49:49;;;;;;;17.98;3.83;;;21.70;68.70;;;;;;5027300;28;20025;-66
2021/06/10 05:52:15;;;;;;;9.00;3.47;;;21.90;69.70;;;;;;5027992;28;20076;-67
2021/06/10 05:54:41;;;;;;;7.43;2.78;;;22.20;69.10;;;;;;5027937;28;20083;-67
2021/06/10 05:57:08;;;;;;;6.40;3.30;;;22.40;67.90;;;;;;5027376;28;20029;-67
2021/06/10 05:59:34;;;;;;;8.68;3.78;;;22.60;67.30;;;;;;5026089;28;20028;-67
2021/06/10 06:02:00;;;;;;;6.30;3.40;;;22.90;66.30;;;;;;5027868;28;20021;-66
2021/06/10 06:04:25;;;;;;;11.05;3.50;;;23.10;65.70;;;;;;5027016;28;20116;-66
2021/06/10 06:06:51;;;;;;;13.95;3.72;;;23.10;66.00;;;;;;5026300;28;20041;-67
2021/06/10 06:09:17;;;;;;;6.82;3.53;;;22.90;67.00;;;;;;5027395;28;20036;-67
2021/06/10 06:11:42;;;;;;;8.05;3.92;;;22.70;68.20;;;;;;5027219;28;20069;-68
2021/06/10 06:14:09;;;;;;;11.07;5.32;;;22.50;68.60;;;;;;5027510;28;20508;-68
2021/06/10 06:16:41;;;;;;;7.68;4.78;;;22.40;68.60;;;;;;5027515;28;20965;-67
2021/06/10 06:19:08;;;;;;;11.90;4.85;;;22.40;67.90;;;;;;5026482;28;20092;-67
2021/06/10 06:21:35;;;;;;;7.80;5.00;;;22.40;68.00;;;;;;5027377;28;20509;-68
2021/06/10 06:24:02;;;;;;;12.05;4.38;;;22.30;68.10;;;;;;5027438;28;20130;-68
2021/06/10 06:26:28;;;;;;;16.27;4.50;;;22.30;67.80;;;;;;5026815;28;20040;-68
2021/06/10 06:28:58;;;;;;;8.65;4.20;;;22.20;69.00;;;;;;5026923;28;20028;-67
2021/06/10 06:31:24;;;;;;;8.25;4.00;;;22.20;68.30;;;;;;5025834;28;20885;-68
2021/06/10 06:33:49;;;;;;;6.20;3.72;;;22.10;67.90;;;;;;5026681;28;20541;-67
2021/06/10 06:36:15;;;;;;;13.05;4.53;;;22.00;68.90;;;;;;5026714;28;20041;-67
2021/06/10 06:38:41;;;;;;;14.40;4.38;;;21.90;67.70;;;;;;5026785;28;20025;-68
2021/06/10 06:41:06;;;;;;;16.30;5.10;;;21.80;67.40;;;;;;5026990;28;20025;-67
2021/06/10 06:43:32;;;;;;;15.38;4.18;;;21.70;68.40;;;;;;5026675;28;20040;-68
2021/06/10 06:45:58;;;;;;;9.50;4.10;;;21.70;68.40;;;;;;5025071;28;20037;-68
2021/06/10 06:48:24;;;;;;;8.77;4.32;;;22.00;70.20;;;;;;5025445;28;20025;-67
2021/06/10 06:50:50;;;;;;;12.60;3.70;;;22.70;68.80;;;;;;5025601;28;20041;-67
2021/06/10 06:53:15;;;;;;;6.93;4.00;;;24.10;63.40;;;;;;5026873;28;20079;-68
2021/06/10 06:55:43;;;;;;;11.25;4.18;;;25.00;59.80;;;;;;5026385;28;20045;-68
2021/06/10 06:58:09;;;;;;;5.47;3.08;;;25.50;57.30;;;;;;5026390;28;20013;-68
2021/06/10 07:00:35;;;;;;;7.13;3.15;;;25.70;56.20;;;;;;5026822;28;20041;-68
2021/06/10 07:03:01;;;;;;;9.15;3.58;;;25.90;55.60;;;;;;5026590;28;20040;-68
2021/06/10 07:05:27;;;;;;;9.10;4.03;;;26.20;55.10;;;;;;5025782;28;20045;-68
2021/06/10 07:07:52;;;;;;;16.33;4.05;;;26.80;52.10;;;;;;5026777;28;20494;-68
2021/06/10 07:10:18;;;;;;;13.68;3.50;;;27.90;49.30;;;;;;5026246;28;20045;-68
2021/06/10 07:12:44;;;;;;;12.35;4.25;;;28.50;46.90;;;;;;5026453;28;20025;-68
2021/06/10 07:15:10;;;;;;;8.15;3.33;;;28.60;44.30;;;;;;5026493;28;20029;-68
2021/06/10 07:17:36;;;;;;;7.88;3.90;;;29.00;45.50;;;;;;5026572;28;20025;-68
2021/06/10 07:20:03;;;;;;;9.85;4.30;;;28.60;46.00;;;;;;5025809;28;20440;-68
2021/06/10 07:22:36;;;;;;;12.38;3.70;;;28.00;47.50;;;;;;5025033;28;20030;-68
2021/06/10 07:25:02;;;;;;;7.05;3.60;;;27.40;49.40;;;;;;5026349;28;20517;-68
2021/06/10 07:27:28;;;;;;;12.85;4.00;;;27.10;50.40;;;;;;5025799;28;20030;-67
2021/06/10 07:29:54;;;;;;;17.63;4.03;;;26.60;52.00;;;;;;5025987;28;20079;-68
2021/06/10 07:32:20;;;;;;;8.60;4.22;;;26.20;52.80;;;;;;5026251;28;20032;-68
2021/06/10 07:34:46;;;;;;;12.95;4.20;;;25.90;53.80;;;;;;5025929;28;20045;-68
2021/06/10 07:37:12;;;;;;;7.28;3.70;;;25.60;54.30;;;;;;5025833;28;20075;-68
2021/06/10 07:39:38;;;;;;;10.23;4.90;;;25.40;55.70;;;;;;5026341;28;20026;-68
2021/06/10 07:42:04;;;;;;;13.50;4.25;;;25.40;55.80;;;;;;5025115;28;20037;-68
2021/06/10 07:44:30;;;;;;;9.50;3.75;;;25.50;56.10;;;;;;5026280;28;20021;-68
2021/06/10 07:46:56;;;;;;;11.30;3.53;;;25.70;55.20;;;;;;5025793;28;20383;-68
2021/06/10 07:49:22;;;;;;;6.10;3.72;;;25.70;55.30;;;;;;5024335;28;20937;-68
2021/06/10 07:51:47;;;;;;;8.80;3.40;;;26.00;55.10;;;;;;5026176;28;20025;-69
2021/06/10 07:54:13;;;;;;;12.38;4.35;;;26.30;54.60;;;;;;5026181;28;20087;-67
2021/06/10 07:56:39;;;;;;;9.95;4.25;;;26.50;53.00;;;;;;5025731;28;20021;-68
2021/06/10 07:59:05;;;;;;;10.82;4.07;;;26.60;51.60;;;;;;5026015;28;20037;-68
2021/06/10 08:01:31;;;;;;;7.55;3.65;;;26.60;52.40;;;;;;5029876;28;20037;-67
2021/06/10 08:03:57;;;;;;;5.68;3.65;;;26.60;52.90;;;;;;5030070;28;20555;-68
2021/06/10 08:06:23;;;;;;;9.52;3.60;;;26.50;52.40;;;;;;5029908;28;20076;-67
2021/06/10 08:08:49;;;;;;;8.95;3.65;;;26.50;52.10;;;;;;5029940;28;20419;-68
2021/06/10 08:11:16;;;;;;;8.25;3.45;;;26.40;53.30;;;;;;5029882;28;20492;-68
2021/06/10 08:13:41;;;;;;;6.80;3.85;;;26.50;52.20;;;;;;5029925;28;20053;-67
2021/06/10 08:16:07;;;;;;;4.78;3.47;;;26.50;51.40;;;;;;5029056;28;20534;-68
2021/06/10 08:18:33;;;;;;;10.90;3.55;;;26.50;52.30;;;;;;5028153;28;20100;-68
2021/06/10 08:21:00;;;;;;;4.65;3.20;;;26.50;51.50;;;;;;5029297;28;20176;-67
2021/06/10 08:23:27;;;;;;;7.15;3.20;;;26.50;52.90;;;;;;5029067;28;20025;-68
2021/06/10 08:25:57;;;;;;;11.20;3.60;;;26.60;52.60;;;;;;5029415;28;20034;-68
2021/06/10 08:28:23;;;;;;;3.95;2.70;;;26.60;51.80;;;;;;5029275;28;20032;-68
2021/06/10 08:30:49;;;;;;;8.25;3.20;;;26.60;52.70;;;;;;5029498;28;20041;-68
2021/06/10 08:33:16;;;;;;;5.85;3.65;;;26.60;51.70;;;;;;5028581;28;20467;-67
2021/06/10 08:35:42;;;;;;;4.80;3.60;;;26.70;51.60;;;;;;5029272;28;20053;-68
2021/06/10 08:38:09;;;;;;;8.30;3.33;;;26.90;51.90;;;;;;5029521;28;20052;-68
2021/06/10 08:40:37;;;;;;;4.65;3.10;;;27.00;51.10;;;;;;5029295;28;20059;-68
2021/06/10 08:43:07;;;;;;;4.18;3.00;;;27.20;50.90;;;;;;5029291;28;20049;-67
2021/06/10 08:45:34;;;;;;;5.78;3.20;;;27.40;48.70;;;;;;5029005;28;20057;-68
2021/06/10 08:48:00;;;;;;;6.70;2.67;;;28.00;47.30;;;;;;5029263;28;20053;-69
2021/06/10 08:50:27;;;;;;;7.97;4.00;;;28.70;44.70;;;;;;5027496;28;20041;-68
2021/06/10 08:52:58;;;;;;;5.40;2.95;;;29.00;42.80;;;;;;5029318;28;20017;-68
2021/06/10 08:55:25;;;;;;;5.15;2.90;;;29.40;42.70;;;;;;5028671;28;20405;-69
2021/06/10 08:57:52;;;;;;;4.50;2.70;;;29.90;41.00;;;;;;5028998;28;20445;-69
2021/06/10 09:00:23;;;;;;;4.00;2.85;;;30.40;40.10;;;;;;5028872;28;20090;-69
2021/06/10 09:02:53;;;;;;;6.25;2.90;;;30.70;39.30;;;;;;5027350;28;20029;-68
2021/06/10 09:05:20;;;;;;;4.75;2.70;;;31.10;39.60;;;;;;5028299;28;20112;-68
2021/06/10 09:07:53;;;;;;;6.70;2.53;;;30.80;37.60;;;;;;5028840;28;20498;-69
2021/06/10 09:10:23;;;;;;;6.47;2.70;;;30.60;38.60;;;;;;5028926;28;20108;-68
2021/06/10 09:13:00;;;;;;;5.63;3.08;;;30.10;38.40;;;;;;5027730;28;20056;-69
2021/06/10 09:15:29;;;;;;;8.02;3.10;;;29.80;39.70;;;;;;5028559;28;20072;-69
2021/06/10 09:17:57;;;;;;;8.77;2.47;;;29.90;38.00;;;;;;5028147;28;20052;-69
2021/06/10 09:20:24;;;;;;;5.03;3.13;;;30.00;37.60;;;;;;5028321;28;20061;-69
2021/06/10 09:22:52;;;;;;;3.65;2.10;;;30.40;37.30;;;;;;5027329;28;20030;-68
2021/06/10 09:25:20;;;;;;;7.57;2.78;;;31.00;37.50;;;;;;5028698;28;20456;-69
2021/06/10 09:27:53;;;;;;;4.13;2.75;;;31.00;35.70;;;;;;5028198;28;20025;-69
2021/06/10 09:30:28;;;;;;;4.50;2.50;;;30.40;36.70;;;;;;5028090;28;20033;-69
2021/06/10 09:32:53;;;;;;;6.97;3.03;;;30.50;38.10;;;;;;5028200;28;20029;-68
2021/06/10 09:35:27;;;;;;;5.22;3.10;;;30.50;36.80;;;;;;5027594;28;20057;-69
2021/06/10 09:37:58;;;;;;;8.85;2.40;;;30.40;36.60;;;;;;5028369;28;20506;-68
2021/06/10 09:40:23;;;;;;;8.10;2.92;;;29.60;37.70;;;;;;5027879;28;20041;-68
2021/06/10 09:42:50;;;;;;;5.35;2.80;;;29.30;39.40;;;;;;5026914;28;20057;-68
2021/06/10 09:45:18;;;;;;;31.80;4.32;;;29.10;38.40;;;;;;5027400;28;20498;-68
2021/06/10 09:47:51;;;;;;;19.15;4.00;;;28.70;42.00;;;;;;5027708;28;20040;-67
2021/06/10 09:50:23;;;;;;;14.00;3.63;;;28.10;43.90;;;;;;5027897;28;20504;-67
2021/06/10 09:53:01;;;;;;;22.52;6.03;;;27.30;47.80;;;;;;5026964;28;20367;-66
2021/06/10 09:55:32;;;;;;;31.10;7.70;;;26.50;62.00;;;;;;5026079;28;20033;-67
2021/06/10 09:58:13;;;;;;;33.05;8.25;;;25.40;67.10;;;;;;5027720;28;20635;-67
2021/06/10 10:00:53;;;;;;;14.45;5.32;;;23.60;72.40;;;;;;5027577;28;20132;-66
2021/06/10 10:03:25;;;;;;;9.43;4.63;;;22.10;73.50;;;;;;5026896;28;20029;-67
2021/06/10 10:06:05;;;;;;;10.48;3.70;;;21.20;75.00;;;;;;5027474;28;20561;-67
2021/06/10 10:08:33;;;;;;;7.93;5.43;;;20.70;76.10;;;;;;5027354;28;20478;-67
2021/06/10 10:11:00;;;;;;;8.07;4.72;;;20.60;83.00;;;;;;5027663;28;20025;-67
2021/06/10 10:13:28;;;;;;;5.82;3.28;;;20.70;84.20;;;;;;5025614;28;20482;-67
2021/06/10 10:15:57;;;;;;;4.43;2.85;;;20.90;80.00;;;;;;5027493;28;20025;-67
2021/06/10 10:18:23;;;;;;;6.45;3.88;;;21.40;78.70;;;;;;5026674;28;20453;-67
2021/06/10 10:20:49;;;;;;;8.90;5.32;;;22.00;84.10;;;;;;5027666;28;20065;-67
2021/06/10 10:23:15;;;;;;;8.77;4.78;;;22.60;88.00;;;;;;5026477;28;20789;-67
2021/06/10 10:25:42;;;;;;;7.80;4.07;;;23.10;86.10;;;;;;5027098;28;20040;-67
2021/06/10 10:28:10;;;;;;;9.57;4.47;;;23.50;83.00;;;;;;5026995;28;20140;-67
2021/06/10 10:30:38;;;;;;;5.28;4.13;;;23.70;81.90;;;;;;5027374;28;20021;-66
2021/06/10 10:33:29;;;;;;;6.90;4.07;;;23.80;78.20;;;;;;5026970;28;20064;-67
2021/06/10 10:36:01;;;;;;;6.07;4.40;;;23.70;79.90;;;;;;5026661;28;20518;-67
2021/06/10 10:38:41;;;;;;;8.43;4.47;;;23.70;81.30;;;;;;5026999;28;20051;-67
2021/06/10 10:41:12;;;;;;;6.47;4.75;;;23.90;78.80;;;;;;5025697;28;20033;-66
2021/06/10 10:43:38;;;;;;;6.10;4.47;;;23.70;77.40;;;;;;5026858;28;20495;-67
2021/06/10 10:46:20;;;;;;;9.18;4.57;;;23.60;76.30;;;;;;5026759;28;20340;-67
2021/06/10 10:48:48;;;;;;;9.90;4.07;;;23.50;77.50;;;;;;5026998;28;20052;-67
2021/06/10 10:51:34;;;;;;;11.05;3.90;;;23.50;78.50;;;;;;5026252;28;20079;-68
2021/06/10 10:54:02;;;;;;;5.85;4.05;;;23.60;77.90;;;;;;5026476;28;20112;-67
2021/06/10 10:56:41;;;;;;;7.38;3.85;;;24.00;75.40;;;;;;5026768;28;20404;-68
2021/06/10 10:59:13;;;;;;;5.10;3.55;;;24.30;74.80;;;;;;5026809;28;20033;-68
2021/06/10 11:01:39;;;;;;;9.82;3.95;;;24.70;70.70;;;;;;5026289;28;20029;-68
2021/06/10 11:04:05;;;;;;;15.23;3.83;;;25.00;69.40;;;;;;5026759;28;20090;-68
2021/06/10 11:06:33;;;;;;;11.25;3.42;;;25.40;68.10;;;;;;5026732;28;20041;-68
2021/06/10 11:09:01;;;;;;;5.07;3.47;;;25.80;63.10;;;;;;5026325;28;20112;-67
2021/06/10 11:11:49;;;;;;;7.85;2.92;;;26.10;65.20;;;;;;5026558;28;20029;-67
2021/06/10 11:14:34;;;;;;;6.55;3.92;;;26.50;62.50;;;;;;5026698;28;20514;-67
2021/06/10 11:17:15;;;;;;;3.95;3.05;;;26.90;63.70;;;;;;5026004;28;20021;-67
2021/06/10 11:20:14;;;;;;;6.25;3.63;;;27.20;59.80;;;;;;5026452;28;20348;-68
2021/06/10 11:22:48;;;;;;;10.93;3.53;;;27.10;55.10;;;;;;5026537;28;20053;-68
2021/06/10 11:25:26;;;;;;;5.57;3.67;;;26.80;57.20;;;;;;5025826;28;20029;-69
2021/06/10 11:27:56;;;;;;;10.52;3.28;;;26.50;58.90;;;;;;5026319;28;20037;-67
2021/06/10 11:30:22;;;;;;;6.32;3.42;;;26.40;57.70;;;;;;5025916;28;20017;-67
2021/06/10 11:33:01;;;;;;;10.70;3.75;;;26.20;57.80;;;;;;5025998;28;20450;-67
2021/06/10 11:35:47;;;;;;;5.85;4.32;;;26.10;58.80;;;;;;5024518;28;20057;-68
2021/06/10 11:38:52;;;;;;;10.05;3.30;;;25.80;60.90;;;;;;5026495;28;20026;-67
2021/06/10 11:41:22;;;;;;;6.30;3.85;;;25.50;59.50;;;;;;5023084;28;20487;-67
2021/06/10 11:43:54;;;;;;;17.00;5.32;;;25.20;63.80;;;;;;5025605;28;20116;-67
2021/06/10 11:46:28;;;;;;;8.05;4.65;;;24.90;63.80;;;;;;5025436;28;20179;-68
2021/06/10 11:48:54;;;;;;;17.90;5.32;;;24.40;66.10;;;;;;5025868;28;20026;-67
2021/06/10 11:51:29;;;;;;;29.85;5.97;;;24.10;70.10;;;;;;5026000;28;20120;-66
2021/06/10 11:54:17;;;;;;;15.25;5.53;;;23.90;77.30;;;;;;5026197;28;20643;-66
2021/06/10 11:56:46;;;;;;;13.88;5.75;;;23.80;82.80;;;;;;5026136;28;20026;-66
2021/06/10 11:59:15;;;;;;;9.27;5.10;;;23.40;82.40;;;;;;5025908;28;20033;-66
2021/06/10 12:01:55;;;;;;;17.38;6.18;;;22.80;76.10;;;;;;5025822;28;20101;-66
2021/06/10 12:04:29;;;;;;;12.80;5.80;;;21.70;79.40;;;;;;5025811;28;20033;-66
2021/06/10 12:07:17;;;;;;;21.30;5.70;;;20.70;81.70;;;;;;5025580;28;20413;-66
2021/06/10 12:09:56;;;;;;;16.30;5.43;;;20.00;84.10;;;;;;5025965;28;20049;-65
2021/06/10 12:12:45;;;;;;;14.38;5.75;;;19.50;89.70;;;;;;5025970;28;20038;-66
2021/06/10 12:15:29;;;;;;;15.05;5.60;;;19.10;91.40;;;;;;5025552;28;20459;-66
2021/06/10 12:17:59;;;;;;;13.15;6.20;;;18.90;92.10;;;;;;5025943;28;20033;-66
2021/06/10 12:20:28;;;;;;;14.98;6.43;;;18.90;94.40;;;;;;5024093;28;20032;-65
2021/06/10 12:22:54;;;;;;;16.85;7.28;;;19.00;95.50;;;;;;5025576;28;20101;-66
2021/06/10 12:25:24;;;;;;;15.73;7.05;;;19.10;94.20;;;;;;5025882;28;20124;-66
2021/06/10 12:27:50;;;;;;;17.73;6.93;;;19.10;94.50;;;;;;5025573;28;20044;-66
2021/06/10 12:30:37;;;;;;;13.68;6.78;;;19.20;94.80;;;;;;5023590;28;20253;-66
2021/06/10 12:33:20;;;;;;;14.68;6.55;;;19.40;94.80;;;;;;5025821;28;20024;-66
2021/06/10 12:35:51;;;;;;;9.02;6.88;;;19.60;93.80;;;;;;5025095;28;20060;-66
2021/06/10 12:38:18;;;;;;;10.88;6.65;;;19.70;93.90;;;;;;5025469;28;20451;-66
2021/06/10 12:40:47;;;;;;;13.68;7.18;;;19.70;93.90;;;;;;5025642;28;20425;-66
2021/06/10 12:43:22;;;;;;;11.00;6.50;;;19.80;94.20;;;;;;5025149;28;20025;-67
2021/06/10 12:45:48;;;;;;;11.85;7.05;;;20.00;93.80;;;;;;5025188;28;20037;-66
2021/06/10 12:48:40;;;;;;;12.15;7.18;;;20.10;94.00;;;;;;5028853;28;20090;-66
2021/06/10 12:51:25;;;;;;;10.52;6.40;;;20.20;94.00;;;;;;5028573;28;20056;-66